sensor_id;sensor_type;location;lat;lon;timestamp;P1;durP1;ratioP1;P2;durP2;ratioP2
65831;SDS011;52593;42.648;23.332;2023-09-08T00:00:31;16.43;;;8.10;;
65831;SDS011;52593;42.648;23.332;2023-09-08T00:02:56;12.53;;;7.60;;
65831;SDS011;52593;42.648;23.332;2023-09-08T00:05:22;13.30;;;7.70;;
65831;SDS011;52593;42.648;23.332;2023-09-08T00:07:47;16.52;;;8.00;;
65831;SDS011;52593;42.648;23.332;2023-09-08T00:10:12;13.33;;;7.00;;
65831;SDS011;52593;42.648;23.332;2023-09-08T00:12:38;13.87;;;7.47;;
65831;SDS011;52593;42.648;23.332;2023-09-08T00:15:04;13.73;;;7.70;;
65831;SDS011;52593;42.648;23.332;2023-09-08T00:17:31;14.57;;;6.90;;
65831;SDS011;52593;42.648;23.332;2023-09-08T00:19:56;14.33;;;6.10;;
65831;SDS011;52593;42.648;23.332;2023-09-08T00:22:22;12.20;;;6.10;;
65831;SDS011;52593;42.648;23.332;2023-09-08T00:24:47;11.33;;;5.83;;
65831;SDS011;52593;42.648;23.332;2023-09-08T00:27:13;9.93;;;5.40;;
65831;SDS011;52593;42.648;23.332;2023-09-08T00:29:38;9.97;;;5.60;;
65831;SDS011;52593;42.648;23.332;2023-09-08T00:32:04;13.40;;;5.20;;
65831;SDS011;52593;42.648;23.332;2023-09-08T00:34:29;10.37;;;4.97;;
65831;SDS011;52593;42.648;23.332;2023-09-08T00:36:55;11.10;;;5.27;;
65831;SDS011;52593;42.648;23.332;2023-09-08T00:39:20;8.50;;;4.90;;
65831;SDS011;52593;42.648;23.332;2023-09-08T00:41:46;11.03;;;5.10;;
65831;SDS011;52593;42.648;23.332;2023-09-08T00:44:11;10.00;;;5.23;;
65831;SDS011;52593;42.648;23.332;2023-09-08T00:46:36;8.07;;;4.30;;
65831;SDS011;52593;42.648;23.332;2023-09-08T00:49:02;10.98;;;4.70;;
65831;SDS011;52593;42.648;23.332;2023-09-08T00:51:28;9.33;;;4.63;;
65831;SDS011;52593;42.648;23.332;2023-09-08T00:53:53;10.38;;;4.60;;
65831;SDS011;52593;42.648;23.332;2023-09-08T00:56:19;8.37;;;4.50;;
65831;SDS011;52593;42.648;23.332;2023-09-08T00:58:45;10.23;;;4.80;;
65831;SDS011;52593;42.648;23.332;2023-09-08T01:01:11;8.90;;;4.13;;
65831;SDS011;52593;42.648;23.332;2023-09-08T01:03:36;8.88;;;4.13;;
65831;SDS011;52593;42.648;23.332;2023-09-08T01:06:02;9.53;;;4.40;;
65831;SDS011;52593;42.648;23.332;2023-09-08T01:08:28;9.85;;;4.55;;
65831;SDS011;52593;42.648;23.332;2023-09-08T01:10:54;7.73;;;3.90;;
65831;SDS011;52593;42.648;23.332;2023-09-08T01:13:20;8.70;;;4.25;;
65831;SDS011;52593;42.648;23.332;2023-09-08T01:15:45;9.67;;;3.93;;
65831;SDS011;52593;42.648;23.332;2023-09-08T01:18:11;10.43;;;3.95;;
65831;SDS011;52593;42.648;23.332;2023-09-08T01:26:43;9.50;;;4.30;;
65831;SDS011;52593;42.648;23.332;2023-09-08T01:29:09;8.45;;;4.13;;
65831;SDS011;52593;42.648;23.332;2023-09-08T01:31:36;11.55;;;4.80;;
65831;SDS011;52593;42.648;23.332;2023-09-08T01:34:03;9.13;;;4.40;;
65831;SDS011;52593;42.648;23.332;2023-09-08T01:36:32;8.63;;;3.70;;
65831;SDS011;52593;42.648;23.332;2023-09-08T01:39:01;10.97;;;4.17;;
65831;SDS011;52593;42.648;23.332;2023-09-08T01:41:27;8.85;;;4.13;;
65831;SDS011;52593;42.648;23.332;2023-09-08T01:43:52;9.30;;;4.10;;
65831;SDS011;52593;42.648;23.332;2023-09-08T01:46:18;7.68;;;4.15;;
65831;SDS011;52593;42.648;23.332;2023-09-08T01:48:43;8.57;;;4.20;;
65831;SDS011;52593;42.648;23.332;2023-09-08T01:51:09;8.67;;;4.23;;
65831;SDS011;52593;42.648;23.332;2023-09-08T01:53:34;9.00;;;4.05;;
65831;SDS011;52593;42.648;23.332;2023-09-08T01:55:59;9.67;;;4.43;;
65831;SDS011;52593;42.648;23.332;2023-09-08T01:58:25;9.47;;;4.00;;
65831;SDS011;52593;42.648;23.332;2023-09-08T02:00:51;7.82;;;4.65;;
65831;SDS011;52593;42.648;23.332;2023-09-08T02:03:16;10.07;;;4.30;;
65831;SDS011;52593;42.648;23.332;2023-09-08T02:05:42;8.77;;;3.93;;
65831;SDS011;52593;42.648;23.332;2023-09-08T02:08:07;8.82;;;4.22;;
65831;SDS011;52593;42.648;23.332;2023-09-08T02:10:33;8.30;;;3.70;;
65831;SDS011;52593;42.648;23.332;2023-09-08T02:12:58;9.07;;;4.13;;
65831;SDS011;52593;42.648;23.332;2023-09-08T02:15:23;10.17;;;4.50;;
65831;SDS011;52593;42.648;23.332;2023-09-08T02:17:52;11.60;;;5.03;;
65831;SDS011;52593;42.648;23.332;2023-09-08T02:20:19;7.68;;;4.05;;
65831;SDS011;52593;42.648;23.332;2023-09-08T02:22:45;9.47;;;4.30;;
65831;SDS011;52593;42.648;23.332;2023-09-08T02:25:12;11.10;;;4.28;;
65831;SDS011;52593;42.648;23.332;2023-09-08T02:27:38;9.05;;;4.65;;
65831;SDS011;52593;42.648;23.332;2023-09-08T02:30:04;9.87;;;5.03;;
65831;SDS011;52593;42.648;23.332;2023-09-08T02:32:30;9.43;;;4.20;;
65831;SDS011;52593;42.648;23.332;2023-09-08T02:34:55;11.30;;;4.90;;
65831;SDS011;52593;42.648;23.332;2023-09-08T02:37:21;9.67;;;4.47;;
65831;SDS011;52593;42.648;23.332;2023-09-08T02:39:46;11.48;;;4.60;;
65831;SDS011;52593;42.648;23.332;2023-09-08T02:42:11;8.20;;;4.37;;
65831;SDS011;52593;42.648;23.332;2023-09-08T02:44:37;10.27;;;4.77;;
65831;SDS011;52593;42.648;23.332;2023-09-08T02:47:02;10.13;;;4.80;;
65831;SDS011;52593;42.648;23.332;2023-09-08T02:49:28;10.20;;;4.78;;
65831;SDS011;52593;42.648;23.332;2023-09-08T02:51:53;11.03;;;4.57;;
65831;SDS011;52593;42.648;23.332;2023-09-08T02:54:18;10.77;;;5.47;;
65831;SDS011;52593;42.648;23.332;2023-09-08T02:56:44;11.03;;;5.53;;
65831;SDS011;52593;42.648;23.332;2023-09-08T02:59:09;10.33;;;5.53;;
65831;SDS011;52593;42.648;23.332;2023-09-08T03:01:34;11.90;;;5.32;;
65831;SDS011;52593;42.648;23.332;2023-09-08T03:04:00;12.17;;;5.40;;
65831;SDS011;52593;42.648;23.332;2023-09-08T03:06:25;9.80;;;5.57;;
65831;SDS011;52593;42.648;23.332;2023-09-08T03:08:51;10.18;;;5.47;;
65831;SDS011;52593;42.648;23.332;2023-09-08T03:11:16;11.57;;;5.70;;
65831;SDS011;52593;42.648;23.332;2023-09-08T03:13:42;11.47;;;5.73;;
65831;SDS011;52593;42.648;23.332;2023-09-08T03:16:07;10.07;;;5.43;;
65831;SDS011;52593;42.648;23.332;2023-09-08T03:18:33;13.77;;;5.80;;
65831;SDS011;52593;42.648;23.332;2023-09-08T03:21:01;12.77;;;5.97;;
65831;SDS011;52593;42.648;23.332;2023-09-08T03:23:41;11.55;;;6.07;;
65831;SDS011;52593;42.648;23.332;2023-09-08T03:26:07;13.55;;;5.97;;
65831;SDS011;52593;42.648;23.332;2023-09-08T03:28:34;12.63;;;6.13;;
65831;SDS011;52593;42.648;23.332;2023-09-08T03:31:00;12.30;;;6.10;;
65831;SDS011;52593;42.648;23.332;2023-09-08T03:33:26;12.82;;;5.85;;
65831;SDS011;52593;42.648;23.332;2023-09-08T03:35:52;13.43;;;5.87;;
65831;SDS011;52593;42.648;23.332;2023-09-08T03:38:17;12.67;;;6.20;;
65831;SDS011;52593;42.648;23.332;2023-09-08T03:40:43;16.92;;;6.53;;
65831;SDS011;52593;42.648;23.332;2023-09-08T03:43:08;13.73;;;6.40;;
65831;SDS011;52593;42.648;23.332;2023-09-08T03:45:34;11.63;;;5.90;;
65831;SDS011;52593;42.648;23.332;2023-09-08T03:47:59;13.10;;;6.20;;
65831;SDS011;52593;42.648;23.332;2023-09-08T03:50:24;12.47;;;6.10;;
65831;SDS011;52593;42.648;23.332;2023-09-08T03:52:50;11.00;;;6.00;;
65831;SDS011;52593;42.648;23.332;2023-09-08T03:55:15;13.33;;;6.50;;
65831;SDS011;52593;42.648;23.332;2023-09-08T03:57:42;13.63;;;6.32;;
65831;SDS011;52593;42.648;23.332;2023-09-08T04:00:07;10.05;;;5.55;;
65831;SDS011;52593;42.648;23.332;2023-09-08T04:02:35;11.67;;;5.23;;
65831;SDS011;52593;42.648;23.332;2023-09-08T04:05:01;11.85;;;5.80;;
65831;SDS011;52593;42.648;23.332;2023-09-08T04:07:26;12.53;;;5.57;;
65831;SDS011;52593;42.648;23.332;2023-09-08T04:09:52;12.20;;;6.13;;
65831;SDS011;52593;42.648;23.332;2023-09-08T04:12:17;19.37;;;6.40;;
65831;SDS011;52593;42.648;23.332;2023-09-08T04:14:42;15.27;;;6.30;;
65831;SDS011;52593;42.648;23.332;2023-09-08T04:17:08;12.37;;;6.40;;
65831;SDS011;52593;42.648;23.332;2023-09-08T04:19:33;11.13;;;6.60;;
65831;SDS011;52593;42.648;23.332;2023-09-08T04:21:59;14.70;;;6.50;;
65831;SDS011;52593;42.648;23.332;2023-09-08T04:24:24;12.25;;;6.15;;
65831;SDS011;52593;42.648;23.332;2023-09-08T04:26:49;13.03;;;6.73;;
65831;SDS011;52593;42.648;23.332;2023-09-08T04:29:15;16.10;;;6.73;;
65831;SDS011;52593;42.648;23.332;2023-09-08T04:31:40;13.67;;;6.73;;
65831;SDS011;52593;42.648;23.332;2023-09-08T04:34:05;16.73;;;6.73;;
65831;SDS011;52593;42.648;23.332;2023-09-08T04:36:31;14.60;;;6.65;;
65831;SDS011;52593;42.648;23.332;2023-09-08T04:38:56;14.77;;;6.83;;
65831;SDS011;52593;42.648;23.332;2023-09-08T04:41:22;18.97;;;10.97;;
65831;SDS011;52593;42.648;23.332;2023-09-08T04:43:47;15.17;;;7.07;;
65831;SDS011;52593;42.648;23.332;2023-09-08T04:46:12;16.02;;;6.85;;
65831;SDS011;52593;42.648;23.332;2023-09-08T04:48:38;15.20;;;6.63;;
65831;SDS011;52593;42.648;23.332;2023-09-08T04:51:03;13.63;;;6.60;;
65831;SDS011;52593;42.648;23.332;2023-09-08T04:53:29;16.47;;;7.07;;
65831;SDS011;52593;42.648;23.332;2023-09-08T04:55:54;16.97;;;6.57;;
65831;SDS011;52593;42.648;23.332;2023-09-08T04:58:19;15.55;;;6.40;;
65831;SDS011;52593;42.648;23.332;2023-09-08T05:00:45;15.00;;;6.60;;
65831;SDS011;52593;42.648;23.332;2023-09-08T05:03:10;19.50;;;7.57;;
65831;SDS011;52593;42.648;23.332;2023-09-08T05:05:35;13.90;;;6.47;;
65831;SDS011;52593;42.648;23.332;2023-09-08T05:08:01;12.67;;;6.43;;
65831;SDS011;52593;42.648;23.332;2023-09-08T05:10:26;10.07;;;6.05;;
65831;SDS011;52593;42.648;23.332;2023-09-08T05:12:52;11.90;;;5.53;;
65831;SDS011;52593;42.648;23.332;2023-09-08T05:15:17;11.83;;;5.57;;
65831;SDS011;52593;42.648;23.332;2023-09-08T05:17:45;11.82;;;5.68;;
65831;SDS011;52593;42.648;23.332;2023-09-08T05:20:11;13.68;;;6.25;;
65831;SDS011;52593;42.648;23.332;2023-09-08T05:22:36;11.53;;;5.90;;
65831;SDS011;52593;42.648;23.332;2023-09-08T05:25:02;13.13;;;5.80;;
65831;SDS011;52593;42.648;23.332;2023-09-08T05:27:28;12.60;;;6.43;;
65831;SDS011;52593;42.648;23.332;2023-09-08T05:29:53;12.47;;;6.23;;
65831;SDS011;52593;42.648;23.332;2023-09-08T05:32:19;14.40;;;5.78;;
65831;SDS011;52593;42.648;23.332;2023-09-08T05:34:44;18.93;;;5.67;;
65831;SDS011;52593;42.648;23.332;2023-09-08T05:37:10;13.50;;;5.47;;
65831;SDS011;52593;42.648;23.332;2023-09-08T05:39:35;10.47;;;5.60;;
65831;SDS011;52593;42.648;23.332;2023-09-08T05:42:01;15.45;;;6.10;;
65831;SDS011;52593;42.648;23.332;2023-09-08T05:44:26;16.50;;;4.77;;
65831;SDS011;52593;42.648;23.332;2023-09-08T05:46:52;12.43;;;4.43;;
65831;SDS011;52593;42.648;23.332;2023-09-08T05:49:17;12.93;;;5.22;;
65831;SDS011;52593;42.648;23.332;2023-09-08T05:51:43;12.60;;;5.63;;
65831;SDS011;52593;42.648;23.332;2023-09-08T05:54:09;10.60;;;4.60;;
65831;SDS011;52593;42.648;23.332;2023-09-08T05:56:36;15.90;;;6.30;;
65831;SDS011;52593;42.648;23.332;2023-09-08T05:59:02;28.25;;;14.77;;
65831;SDS011;52593;42.648;23.332;2023-09-08T06:01:28;29.90;;;15.47;;
65831;SDS011;52593;42.648;23.332;2023-09-08T06:03:54;10.57;;;5.40;;
65831;SDS011;52593;42.648;23.332;2023-09-08T06:06:22;8.32;;;4.65;;
65831;SDS011;52593;42.648;23.332;2023-09-08T06:08:47;9.90;;;4.47;;
65831;SDS011;52593;42.648;23.332;2023-09-08T06:11:13;8.55;;;4.28;;
65831;SDS011;52593;42.648;23.332;2023-09-08T06:13:39;11.90;;;4.70;;
65831;SDS011;52593;42.648;23.332;2023-09-08T06:16:04;13.00;;;4.60;;
65831;SDS011;52593;42.648;23.332;2023-09-08T06:18:29;11.17;;;4.10;;
65831;SDS011;52593;42.648;23.332;2023-09-08T06:20:55;8.80;;;3.92;;
65831;SDS011;52593;42.648;23.332;2023-09-08T06:23:21;10.33;;;4.10;;
65831;SDS011;52593;42.648;23.332;2023-09-08T06:25:46;11.07;;;4.23;;
65831;SDS011;52593;42.648;23.332;2023-09-08T06:28:12;9.63;;;4.17;;
65831;SDS011;52593;42.648;23.332;2023-09-08T06:30:37;12.90;;;4.40;;
65831;SDS011;52593;42.648;23.332;2023-09-08T06:33:06;15.70;;;7.67;;
65831;SDS011;52593;42.648;23.332;2023-09-08T06:35:32;13.77;;;5.53;;
65831;SDS011;52593;42.648;23.332;2023-09-08T06:37:58;8.25;;;3.25;;
65831;SDS011;52593;42.648;23.332;2023-09-08T06:40:28;9.67;;;3.60;;
65831;SDS011;52593;42.648;23.332;2023-09-08T06:42:54;9.85;;;3.47;;
65831;SDS011;52593;42.648;23.332;2023-09-08T06:45:20;9.43;;;3.60;;
65831;SDS011;52593;42.648;23.332;2023-09-08T06:47:45;9.97;;;3.87;;
65831;SDS011;52593;42.648;23.332;2023-09-08T06:50:11;8.77;;;3.40;;
65831;SDS011;52593;42.648;23.332;2023-09-08T06:52:36;6.73;;;3.20;;
65831;SDS011;52593;42.648;23.332;2023-09-08T06:55:01;8.13;;;4.20;;
65831;SDS011;52593;42.648;23.332;2023-09-08T06:57:27;8.30;;;3.30;;
65831;SDS011;52593;42.648;23.332;2023-09-08T06:59:53;9.73;;;4.00;;
65831;SDS011;52593;42.648;23.332;2023-09-08T07:02:18;7.90;;;3.60;;
65831;SDS011;52593;42.648;23.332;2023-09-08T07:04:43;8.00;;;3.58;;
65831;SDS011;52593;42.648;23.332;2023-09-08T07:07:09;8.27;;;3.20;;
65831;SDS011;52593;42.648;23.332;2023-09-08T07:09:35;8.65;;;3.65;;
65831;SDS011;52593;42.648;23.332;2023-09-08T07:12:02;6.60;;;2.80;;
65831;SDS011;52593;42.648;23.332;2023-09-08T07:14:28;10.70;;;3.75;;
65831;SDS011;52593;42.648;23.332;2023-09-08T07:16:54;7.27;;;3.40;;
65831;SDS011;52593;42.648;23.332;2023-09-08T07:19:19;9.10;;;3.83;;
65831;SDS011;52593;42.648;23.332;2023-09-08T07:21:44;8.53;;;3.33;;
65831;SDS011;52593;42.648;23.332;2023-09-08T07:24:10;7.85;;;3.15;;
65831;SDS011;52593;42.648;23.332;2023-09-08T07:26:37;8.20;;;3.50;;
65831;SDS011;52593;42.648;23.332;2023-09-08T07:29:02;8.63;;;3.35;;
65831;SDS011;52593;42.648;23.332;2023-09-08T07:31:27;7.23;;;3.47;;
65831;SDS011;52593;42.648;23.332;2023-09-08T07:33:53;7.63;;;3.00;;
65831;SDS011;52593;42.648;23.332;2023-09-08T07:36:18;7.70;;;3.50;;
65831;SDS011;52593;42.648;23.332;2023-09-08T07:38:44;8.47;;;3.60;;
65831;SDS011;52593;42.648;23.332;2023-09-08T07:41:09;6.90;;;3.17;;
65831;SDS011;52593;42.648;23.332;2023-09-08T07:43:34;6.73;;;3.23;;
65831;SDS011;52593;42.648;23.332;2023-09-08T07:46:05;8.18;;;3.90;;
65831;SDS011;52593;42.648;23.332;2023-09-08T07:48:30;7.77;;;3.63;;
65831;SDS011;52593;42.648;23.332;2023-09-08T07:50:55;8.63;;;3.20;;
65831;SDS011;52593;42.648;23.332;2023-09-08T07:53:23;8.10;;;3.20;;
65831;SDS011;52593;42.648;23.332;2023-09-08T07:55:48;8.67;;;3.27;;
65831;SDS011;52593;42.648;23.332;2023-09-08T07:58:14;8.60;;;3.70;;
65831;SDS011;52593;42.648;23.332;2023-09-08T08:00:39;6.73;;;3.03;;
65831;SDS011;52593;42.648;23.332;2023-09-08T08:03:04;6.93;;;3.10;;
65831;SDS011;52593;42.648;23.332;2023-09-08T08:05:31;8.33;;;3.60;;
65831;SDS011;52593;42.648;23.332;2023-09-08T08:07:56;8.85;;;3.78;;
65831;SDS011;52593;42.648;23.332;2023-09-08T08:10:22;7.40;;;3.77;;
65831;SDS011;52593;42.648;23.332;2023-09-08T08:12:47;10.03;;;3.50;;
65831;SDS011;52593;42.648;23.332;2023-09-08T08:15:12;6.13;;;3.30;;
65831;SDS011;52593;42.648;23.332;2023-09-08T08:17:39;8.93;;;3.30;;
65831;SDS011;52593;42.648;23.332;2023-09-08T08:20:05;7.67;;;3.07;;
65831;SDS011;52593;42.648;23.332;2023-09-08T08:22:36;11.98;;;5.75;;
65831;SDS011;52593;42.648;23.332;2023-09-08T08:25:02;10.02;;;3.40;;
65831;SDS011;52593;42.648;23.332;2023-09-08T08:27:28;7.25;;;3.40;;
65831;SDS011;52593;42.648;23.332;2023-09-08T08:29:55;7.70;;;2.97;;
65831;SDS011;52593;42.648;23.332;2023-09-08T08:32:22;7.70;;;3.20;;
65831;SDS011;52593;42.648;23.332;2023-09-08T08:34:48;6.60;;;3.15;;
65831;SDS011;52593;42.648;23.332;2023-09-08T08:37:13;7.13;;;3.13;;
65831;SDS011;52593;42.648;23.332;2023-09-08T08:39:38;7.97;;;2.87;;
65831;SDS011;52593;42.648;23.332;2023-09-08T08:42:07;8.30;;;3.33;;
65831;SDS011;52593;42.648;23.332;2023-09-08T08:44:34;8.15;;;3.30;;
65831;SDS011;52593;42.648;23.332;2023-09-08T08:47:02;6.68;;;3.00;;
65831;SDS011;52593;42.648;23.332;2023-09-08T08:49:28;9.05;;;2.80;;
65831;SDS011;52593;42.648;23.332;2023-09-08T08:51:58;9.43;;;3.10;;
65831;SDS011;52593;42.648;23.332;2023-09-08T08:54:24;10.17;;;3.30;;
65831;SDS011;52593;42.648;23.332;2023-09-08T08:56:49;12.13;;;3.55;;
65831;SDS011;52593;42.648;23.332;2023-09-08T08:59:15;8.03;;;2.87;;
65831;SDS011;52593;42.648;23.332;2023-09-08T09:01:41;7.57;;;3.20;;
65831;SDS011;52593;42.648;23.332;2023-09-08T09:04:07;10.55;;;3.25;;
65831;SDS011;52593;42.648;23.332;2023-09-08T09:06:34;8.20;;;3.10;;
65831;SDS011;52593;42.648;23.332;2023-09-08T09:09:00;8.20;;;3.25;;
65831;SDS011;52593;42.648;23.332;2023-09-08T09:11:26;9.03;;;4.50;;
65831;SDS011;52593;42.648;23.332;2023-09-08T09:13:52;9.77;;;3.30;;
65831;SDS011;52593;42.648;23.332;2023-09-08T09:16:17;8.97;;;3.37;;
65831;SDS011;52593;42.648;23.332;2023-09-08T09:18:56;11.33;;;2.97;;
65831;SDS011;52593;42.648;23.332;2023-09-08T09:21:23;7.00;;;3.50;;
65831;SDS011;52593;42.648;23.332;2023-09-08T09:24:05;10.88;;;3.50;;
65831;SDS011;52593;42.648;23.332;2023-09-08T09:26:31;8.47;;;3.57;;
65831;SDS011;52593;42.648;23.332;2023-09-08T09:28:56;6.18;;;3.00;;
65831;SDS011;52593;42.648;23.332;2023-09-08T09:31:24;6.97;;;2.93;;
65831;SDS011;52593;42.648;23.332;2023-09-08T09:34:03;8.93;;;3.33;;
65831;SDS011;52593;42.648;23.332;2023-09-08T09:36:30;7.82;;;3.50;;
65831;SDS011;52593;42.648;23.332;2023-09-08T09:38:59;7.80;;;3.60;;
65831;SDS011;52593;42.648;23.332;2023-09-08T09:41:27;5.20;;;2.73;;
65831;SDS011;52593;42.648;23.332;2023-09-08T09:43:53;6.35;;;3.17;;
65831;SDS011;52593;42.648;23.332;2023-09-08T09:46:19;7.75;;;3.00;;
65831;SDS011;52593;42.648;23.332;2023-09-08T09:48:47;8.13;;;3.20;;
65831;SDS011;52593;42.648;23.332;2023-09-08T09:51:17;9.75;;;3.65;;
65831;SDS011;52593;42.648;23.332;2023-09-08T09:53:44;6.20;;;2.90;;
65831;SDS011;52593;42.648;23.332;2023-09-08T09:56:11;7.18;;;2.97;;
65831;SDS011;52593;42.648;23.332;2023-09-08T09:58:37;7.07;;;3.05;;
65831;SDS011;52593;42.648;23.332;2023-09-08T10:01:03;7.27;;;3.43;;
65831;SDS011;52593;42.648;23.332;2023-09-08T10:03:30;7.18;;;3.40;;
65831;SDS011;52593;42.648;23.332;2023-09-08T10:05:57;13.18;;;4.95;;
65831;SDS011;52593;42.648;23.332;2023-09-08T10:08:24;32.92;;;21.75;;
65831;SDS011;52593;42.648;23.332;2023-09-08T10:10:50;53.93;;;28.17;;
65831;SDS011;52593;42.648;23.332;2023-09-08T10:13:18;11.75;;;5.97;;
65831;SDS011;52593;42.648;23.332;2023-09-08T10:15:49;7.40;;;3.60;;
65831;SDS011;52593;42.648;23.332;2023-09-08T10:18:18;7.40;;;3.65;;
65831;SDS011;52593;42.648;23.332;2023-09-08T10:20:45;8.43;;;3.88;;
65831;SDS011;52593;42.648;23.332;2023-09-08T10:23:15;6.10;;;3.70;;
65831;SDS011;52593;42.648;23.332;2023-09-08T10:25:57;6.30;;;3.10;;
65831;SDS011;52593;42.648;23.332;2023-09-08T10:28:28;8.17;;;3.80;;
65831;SDS011;52593;42.648;23.332;2023-09-08T10:30:54;8.50;;;3.60;;
65831;SDS011;52593;42.648;23.332;2023-09-08T10:33:20;7.88;;;3.25;;
65831;SDS011;52593;42.648;23.332;2023-09-08T10:35:48;7.80;;;3.15;;
65831;SDS011;52593;42.648;23.332;2023-09-08T10:38:24;7.93;;;3.50;;
65831;SDS011;52593;42.648;23.332;2023-09-08T10:40:50;7.78;;;3.28;;
65831;SDS011;52593;42.648;23.332;2023-09-08T10:43:17;7.45;;;3.67;;
65831;SDS011;52593;42.648;23.332;2023-09-08T10:45:44;8.10;;;4.50;;
65831;SDS011;52593;42.648;23.332;2023-09-08T10:48:14;8.45;;;3.90;;
65831;SDS011;52593;42.648;23.332;2023-09-08T10:50:41;9.47;;;4.60;;
65831;SDS011;52593;42.648;23.332;2023-09-08T10:53:08;11.63;;;3.83;;
65831;SDS011;52593;42.648;23.332;2023-09-08T10:55:41;6.22;;;3.13;;
65831;SDS011;52593;42.648;23.332;2023-09-08T10:58:09;8.07;;;3.33;;
65831;SDS011;52593;42.648;23.332;2023-09-08T11:00:51;6.55;;;3.47;;
65831;SDS011;52593;42.648;23.332;2023-09-08T11:03:42;6.33;;;3.50;;
65831;SDS011;52593;42.648;23.332;2023-09-08T11:06:09;8.02;;;3.50;;
65831;SDS011;52593;42.648;23.332;2023-09-08T11:08:42;6.60;;;3.50;;
65831;SDS011;52593;42.648;23.332;2023-09-08T11:11:11;7.60;;;3.15;;
65831;SDS011;52593;42.648;23.332;2023-09-08T11:13:38;7.63;;;3.65;;
65831;SDS011;52593;42.648;23.332;2023-09-08T11:16:10;6.23;;;3.23;;
65831;SDS011;52593;42.648;23.332;2023-09-08T11:18:36;8.88;;;3.45;;
65831;SDS011;52593;42.648;23.332;2023-09-08T11:21:02;9.27;;;3.97;;
65831;SDS011;52593;42.648;23.332;2023-09-08T11:23:32;6.63;;;3.50;;
65831;SDS011;52593;42.648;23.332;2023-09-08T11:25:58;7.75;;;3.75;;
65831;SDS011;52593;42.648;23.332;2023-09-08T11:28:25;9.15;;;3.45;;
65831;SDS011;52593;42.648;23.332;2023-09-08T11:30:52;6.67;;;3.50;;
65831;SDS011;52593;42.648;23.332;2023-09-08T11:33:20;7.00;;;3.70;;
65831;SDS011;52593;42.648;23.332;2023-09-08T11:35:50;9.30;;;4.75;;
65831;SDS011;52593;42.648;23.332;2023-09-08T11:38:17;7.20;;;3.88;;
65831;SDS011;52593;42.648;23.332;2023-09-08T11:40:42;9.83;;;3.77;;
65831;SDS011;52593;42.648;23.332;2023-09-08T11:43:08;10.40;;;4.00;;
65831;SDS011;52593;42.648;23.332;2023-09-08T11:45:34;6.57;;;3.27;;
65831;SDS011;52593;42.648;23.332;2023-09-08T11:48:00;8.15;;;3.60;;
65831;SDS011;52593;42.648;23.332;2023-09-08T11:50:25;8.63;;;3.55;;
65831;SDS011;52593;42.648;23.332;2023-09-08T11:52:52;7.77;;;3.70;;
65831;SDS011;52593;42.648;23.332;2023-09-08T11:55:18;7.65;;;3.50;;
65831;SDS011;52593;42.648;23.332;2023-09-08T11:57:45;6.90;;;3.20;;
65831;SDS011;52593;42.648;23.332;2023-09-08T12:00:12;9.70;;;3.47;;
65831;SDS011;52593;42.648;23.332;2023-09-08T12:02:43;6.13;;;3.23;;
65831;SDS011;52593;42.648;23.332;2023-09-08T12:05:19;8.75;;;4.32;;
65831;SDS011;52593;42.648;23.332;2023-09-08T12:07:48;9.65;;;4.18;;
65831;SDS011;52593;42.648;23.332;2023-09-08T12:10:14;8.68;;;3.38;;
65831;SDS011;52593;42.648;23.332;2023-09-08T12:12:52;7.20;;;3.10;;
65831;SDS011;52593;42.648;23.332;2023-09-08T12:15:39;8.02;;;3.40;;
65831;SDS011;52593;42.648;23.332;2023-09-08T12:18:06;6.80;;;3.42;;
65831;SDS011;52593;42.648;23.332;2023-09-08T12:20:34;8.17;;;3.50;;
65831;SDS011;52593;42.648;23.332;2023-09-08T12:23:01;7.50;;;3.30;;
65831;SDS011;52593;42.648;23.332;2023-09-08T12:25:28;9.50;;;3.58;;
65831;SDS011;52593;42.648;23.332;2023-09-08T12:27:53;7.63;;;3.58;;
65831;SDS011;52593;42.648;23.332;2023-09-08T12:30:20;7.27;;;3.53;;
65831;SDS011;52593;42.648;23.332;2023-09-08T12:32:49;8.68;;;4.00;;
65831;SDS011;52593;42.648;23.332;2023-09-08T12:35:19;9.80;;;3.60;;
65831;SDS011;52593;42.648;23.332;2023-09-08T12:37:47;6.38;;;3.58;;
65831;SDS011;52593;42.648;23.332;2023-09-08T12:40:19;7.15;;;3.75;;
65831;SDS011;52593;42.648;23.332;2023-09-08T12:42:44;6.90;;;3.37;;
65831;SDS011;52593;42.648;23.332;2023-09-08T12:45:10;7.33;;;4.17;;
65831;SDS011;52593;42.648;23.332;2023-09-08T12:47:35;8.13;;;4.10;;
65831;SDS011;52593;42.648;23.332;2023-09-08T12:50:01;8.67;;;3.50;;
65831;SDS011;52593;42.648;23.332;2023-09-08T12:52:28;7.43;;;3.40;;
65831;SDS011;52593;42.648;23.332;2023-09-08T12:54:53;8.83;;;3.50;;
65831;SDS011;52593;42.648;23.332;2023-09-08T12:57:18;6.80;;;3.87;;
65831;SDS011;52593;42.648;23.332;2023-09-08T12:59:44;7.10;;;3.50;;
65831;SDS011;52593;42.648;23.332;2023-09-08T13:02:09;8.90;;;3.80;;
65831;SDS011;52593;42.648;23.332;2023-09-08T13:04:37;7.32;;;3.72;;
65831;SDS011;52593;42.648;23.332;2023-09-08T13:07:02;6.43;;;3.40;;
65831;SDS011;52593;42.648;23.332;2023-09-08T13:09:28;7.73;;;3.60;;
65831;SDS011;52593;42.648;23.332;2023-09-08T13:11:53;7.90;;;3.90;;
65831;SDS011;52593;42.648;23.332;2023-09-08T13:14:19;6.95;;;3.90;;
65831;SDS011;52593;42.648;23.332;2023-09-08T13:16:44;8.10;;;3.90;;
65831;SDS011;52593;42.648;23.332;2023-09-08T13:19:09;9.30;;;4.80;;
65831;SDS011;52593;42.648;23.332;2023-09-08T13:21:35;10.20;;;4.47;;
65831;SDS011;52593;42.648;23.332;2023-09-08T13:24:03;7.83;;;4.07;;
65831;SDS011;52593;42.648;23.332;2023-09-08T13:26:31;8.02;;;3.65;;
65831;SDS011;52593;42.648;23.332;2023-09-08T13:28:56;6.87;;;3.60;;
65831;SDS011;52593;42.648;23.332;2023-09-08T13:31:21;6.60;;;3.40;;
65831;SDS011;52593;42.648;23.332;2023-09-08T13:33:47;7.97;;;3.60;;
65831;SDS011;52593;42.648;23.332;2023-09-08T13:36:12;8.90;;;5.00;;
65831;SDS011;52593;42.648;23.332;2023-09-08T13:38:37;11.50;;;4.38;;
65831;SDS011;52593;42.648;23.332;2023-09-08T13:41:03;8.87;;;3.70;;
65831;SDS011;52593;42.648;23.332;2023-09-08T13:43:28;8.17;;;4.40;;
65831;SDS011;52593;42.648;23.332;2023-09-08T13:45:54;9.33;;;3.23;;
65831;SDS011;52593;42.648;23.332;2023-09-08T13:48:19;7.43;;;3.70;;
65831;SDS011;52593;42.648;23.332;2023-09-08T13:50:44;7.07;;;3.83;;
65831;SDS011;52593;42.648;23.332;2023-09-08T13:53:10;8.60;;;4.40;;
65831;SDS011;52593;42.648;23.332;2023-09-08T13:55:35;9.03;;;4.20;;
65831;SDS011;52593;42.648;23.332;2023-09-08T13:58:00;7.43;;;3.90;;
65831;SDS011;52593;42.648;23.332;2023-09-08T14:00:26;6.97;;;4.18;;
65831;SDS011;52593;42.648;23.332;2023-09-08T14:02:51;10.50;;;4.00;;
65831;SDS011;52593;42.648;23.332;2023-09-08T14:05:17;8.20;;;4.00;;
65831;SDS011;52593;42.648;23.332;2023-09-08T14:07:42;7.33;;;3.77;;
65831;SDS011;52593;42.648;23.332;2023-09-08T14:10:07;6.90;;;4.03;;
65831;SDS011;52593;42.648;23.332;2023-09-08T14:12:34;15.00;;;5.27;;
65831;SDS011;52593;42.648;23.332;2023-09-08T14:14:59;7.95;;;4.50;;
65831;SDS011;52593;42.648;23.332;2023-09-08T14:17:25;21.20;;;6.83;;
65831;SDS011;52593;42.648;23.332;2023-09-08T14:19:50;12.57;;;4.57;;
65831;SDS011;52593;42.648;23.332;2023-09-08T14:22:16;63.63;;;13.40;;
65831;SDS011;52593;42.648;23.332;2023-09-08T14:24:41;9.83;;;4.47;;
65831;SDS011;52593;42.648;23.332;2023-09-08T14:27:06;12.93;;;4.57;;
65831;SDS011;52593;42.648;23.332;2023-09-08T14:29:33;9.83;;;4.17;;